首页
METAR-TAF:

METAR-TAF

机场 :

薩里市, 伊朗

纬度: 36-38-09N, 经度: 53-11-37E, 海拔: 11米

当前天气观测

该预报发布于17分钟前的16:00 UTC
风速4节,风向
温度 7°C
湿度 93%
气压 1020 hPa
能见度10公里或以上
1500米以下无云,无积雨云

METAR: OINZ 121600Z 10004KT CAVOK 07/06 Q1020

时间: 19:47 (16:17 UTC)


TAF: 丢失

超过4000个机场的气象观测和天气预报(METAR&TAF报告)。

可查询的气象台以黄色和红色小点在地图上表示。

将鼠标移到小点上方,可查看气象台名称。

然后点击查看天气观测和预报。

如需切换地图:点击带黑十字的绿色按钮放大地图;点击带横线的绿色按钮缩小地图;或者点击绿色箭头查看邻近地区的地图。


METAR-TAF: